Pagina principale
METAR-TAF:

METAR-TAF

Aeroporti :

Annecy, Francia

latitudine: 45-55-45N, longitudine: 006-05-56E, altezza: 463 m

Osservazione

Il bollettino è stato emesso 15 minuti fa, alle 15:30 UTC
Vento 4 kt da nord/nord-ovest, variando fra nord-ovest e nord/nord-est
Temperature 30°C
Umidità 46%
Pressione 1017 hPa
Visibilità 10 km o più
nessuna nube inferiore a 1500 m e nessun cumulonembo

METAR: LFLP 241530Z AUTO 34004KT 310V020 CAVOK 30/17 Q1017 NOSIG

Ora: 17:45 (15:45 UTC)

Previsione

Il bollettino è stato emesso 1 ora e 45 minuti fa, alle 14:00 UTC
Previsione valida dal 24 alle 15 UTC al 25 alle 15 UTC
Vento 2 kt da nord/nord-ovest
Visibilità 10 km o più
nessuna nube inferiore a 1500 m e nessun cumulonembo

TAF: LFLP 241400Z 2415/2515 34002KT CAVOK

Osservazioni e previsioni meteorologiche di più di 4000 aeroporti (messaggi METAR e TAF).

Le stazioni disponibili sono rappresentate dai dischi gialli e rossi sulla carta.

Puntare il mouse per vedere il nome della stazione.

Clicca sopra per visualizzare le osservazioni e previsioni meteorologiche.

Per cambiare la mappa : fare clic sui pulsanti verdi con una croce nera per ingrandire, il pulsante verde con un trattino per diminuire, o sulla freccia verde per le mappe adiacenti.


METAR-TAF: